東京理科大学Ⅰ部体育局航空部

このエントリーをはてなブックマークに追加

ようこそ、理科大航空部HPへ! ここでは、航空部に関する情報や、活動などをお知らせしています。


METAR・TAF

TOKYO INTERNATIONAL
Metar
RJTT 251700Z 01006KT 7000 FEW008 BKN018 23/21 Q1015 NOSIG RMK 1ST008 7SC018 A2997

17:00 UTC

Wind: 10° 6kt

Visibility: 7000 m

Sky: FEW 800 ft

Temp: 23 deg C / 73.4 deg F

Dewpoint: 21 deg C / 69.8 deg F

Pressure: 1015 hPa

TAF
TAF RJTT 251105Z 2512/2618 12010KT 9999 FEW010 BKN015 BECMG 2513/2515 02006KT BECMG 2522/2600 10008KT BECMG 2600/2603 20018KT
NARITA INTERNATIONAL
Metar
RJAA 251700Z 12005KT 3500 BR FEW003 BKN004 BKN005 22/22 Q1015 TEMPO 3000 BR

17:00 UTC

Wind: 120° 5kt

Visibility: 3500 m

Sky: FEW 300 ft

Temp: 22 deg C / 71.6 deg F

Dewpoint: 22 deg C / 71.6 deg F

Pressure: 1015 hPa

TAF
TAF AMD RJAA 251333Z 2513/2618 07005KT 4000 BR FEW004 BKN006 TEMPO 2513/2517 3000 BR FEW003 BKN005 BECMG 2515/2517 03004KT TEMPO 2517/2521 1500 BR BCFG FEW002 BKN004 BECMG 2522/2600 21010KT 9999 NSW FEW020